createdAt,value
2019-01-13T00:01:08.977Z,82.81
2019-01-13T00:03:36.773Z,82.91
2019-01-13T00:06:04.660Z,83.14
2019-01-13T00:08:32.551Z,83.09
2019-01-13T00:11:00.298Z,83.33
2019-01-13T00:13:28.361Z,82.84
2019-01-13T00:15:56.253Z,82.79
2019-01-13T00:18:24.253Z,82.67
2019-01-13T00:20:52.035Z,83.09
2019-01-13T00:23:19.767Z,82.58
2019-01-13T00:25:49.111Z,82.12
2019-01-13T00:28:16.859Z,82.27
2019-01-13T00:30:44.657Z,81.98
2019-01-13T00:33:12.425Z,81.92
2019-01-13T00:35:40.191Z,82.10
2019-01-13T00:38:07.929Z,81.84
2019-01-13T00:40:35.709Z,81.91
2019-01-13T00:43:03.541Z,81.55
2019-01-13T00:45:31.307Z,81.89
2019-01-13T00:47:59.080Z,82.29
2019-01-13T00:50:26.983Z,81.90
2019-01-13T00:52:54.694Z,82.09
2019-01-13T00:55:22.430Z,82.51
2019-01-13T00:57:50.211Z,82.47
2019-01-13T01:00:26.386Z,82.30
2019-01-13T01:02:50.439Z,82.79
2019-01-13T01:05:18.376Z,82.60
2019-01-13T01:07:48.574Z,82.65
2019-01-13T01:10:17.180Z,82.27
2019-01-13T01:12:44.916Z,82.20
2019-01-13T01:15:13.766Z,82.67
2019-01-13T01:17:41.535Z,82.75
2019-01-13T01:20:11.208Z,82.58
2019-01-13T01:22:38.972Z,82.74
2019-01-13T01:25:08.202Z,82.76
2019-01-13T01:27:36.024Z,81.89
2019-01-13T01:30:09.026Z,82.05
2019-01-13T01:32:36.798Z,81.68
2019-01-13T01:35:04.954Z,81.60
2019-01-13T01:37:32.716Z,81.20
2019-01-13T01:40:00.467Z,81.36
2019-01-13T01:42:28.213Z,81.37
2019-01-13T01:44:55.945Z,80.75
2019-01-13T01:47:23.715Z,80.38
2019-01-13T01:49:51.465Z,80.27
2019-01-13T01:52:19.266Z,80.66
2019-01-13T01:54:47.069Z,80.35
2019-01-13T01:57:14.866Z,80.52
2019-01-13T01:59:43.745Z,80.54
2019-01-13T02:02:11.609Z,80.82
2019-01-13T02:04:39.376Z,81.08
2019-01-13T02:07:07.208Z,80.47
2019-01-13T02:09:34.945Z,80.14
2019-01-13T02:12:02.698Z,80.75
2019-01-13T02:14:30.492Z,81.07
2019-01-13T02:17:01.207Z,80.96
2019-01-13T02:19:28.963Z,80.29
2019-01-13T02:21:56.699Z,80.30
2019-01-13T02:24:24.765Z,79.94
2019-01-13T02:26:52.640Z,79.67
2019-01-13T02:29:20.363Z,79.72
2019-01-13T02:31:48.337Z,80.16
2019-01-13T02:34:16.061Z,80.81
2019-01-13T02:36:43.830Z,80.61
2019-01-13T02:39:11.578Z,80.35
2019-01-13T02:41:39.315Z,80.49
2019-01-13T02:44:07.061Z,80.06
2019-01-13T02:46:34.834Z,79.94
2019-01-13T02:49:02.580Z,80.42
2019-01-13T02:51:30.325Z,80.81
2019-01-13T02:53:58.108Z,80.37
2019-01-13T02:56:25.870Z,81.34
2019-01-13T02:58:53.610Z,80.97
2019-01-13T03:01:21.387Z,80.36
2019-01-13T03:03:49.140Z,80.92
2019-01-13T03:06:16.914Z,80.26
2019-01-13T03:08:44.659Z,80.83
2019-01-13T03:11:12.450Z,81.07
2019-01-13T03:13:40.170Z,80.00
2019-01-13T03:16:07.922Z,79.94
2019-01-13T03:18:35.752Z,79.83
2019-01-13T03:21:03.488Z,79.41
2019-01-13T03:23:31.244Z,79.40
2019-01-13T03:25:59.090Z,78.95
2019-01-13T03:28:26.946Z,79.45
2019-01-13T03:30:54.691Z,79.36
2019-01-13T03:33:22.474Z,79.50
2019-01-13T03:35:50.224Z,79.71
2019-01-13T03:38:18.010Z,80.05
2019-01-13T03:40:45.734Z,80.18
2019-01-13T03:43:13.488Z,80.12
2019-01-13T03:45:41.228Z,80.22
2019-01-13T03:48:09.066Z,80.32
2019-01-13T03:50:36.794Z,80.02
2019-01-13T03:53:04.535Z,80.20
2019-01-13T03:55:32.258Z,79.11
2019-01-13T03:57:59.997Z,79.04
2019-01-13T04:00:27.732Z,78.84
2019-01-13T04:02:55.542Z,78.84
2019-01-13T04:05:23.400Z,78.80
2019-01-13T04:07:51.290Z,78.60
2019-01-13T04:10:19.016Z,78.76
2019-01-13T04:12:46.806Z,79.27
2019-01-13T04:16:05.929Z,79.50
2019-01-13T04:18:33.681Z,79.65
2019-01-13T04:21:01.415Z,79.40
2019-01-13T04:23:29.171Z,79.80
2019-01-13T04:25:56.990Z,80.21
2019-01-13T04:28:24.791Z,79.78
2019-01-13T04:30:52.792Z,79.68
2019-01-13T04:33:20.582Z,79.61
2019-01-13T04:35:48.453Z,79.63
2019-01-13T04:38:16.198Z,79.27
2019-01-13T04:40:43.927Z,79.08
2019-01-13T04:43:11.669Z,79.66
2019-01-13T04:45:39.415Z,80.92
2019-01-13T04:48:07.166Z,80.75
2019-01-13T04:50:34.925Z,80.06
2019-01-13T04:53:02.698Z,79.93
2019-01-13T04:55:30.475Z,80.50
2019-01-13T04:57:58.234Z,80.69
2019-01-13T05:00:25.979Z,80.52
2019-01-13T05:02:53.736Z,81.10
2019-01-13T05:05:21.633Z,80.54
2019-01-13T05:07:49.469Z,80.46
2019-01-13T05:10:18.642Z,80.61
2019-01-13T05:12:46.485Z,80.76
2019-01-13T05:15:14.356Z,81.08
2019-01-13T05:17:42.118Z,81.10
2019-01-13T05:20:13.804Z,80.75
2019-01-13T05:22:42.099Z,80.48
2019-01-13T05:25:09.964Z,80.32
2019-01-13T05:27:37.714Z,80.27
2019-01-13T05:30:17.992Z,80.56
2019-01-13T05:32:45.715Z,80.47
2019-01-13T05:35:13.610Z,80.57
2019-01-13T05:37:41.360Z,80.52
2019-01-13T05:40:12.354Z,80.10
2019-01-13T05:42:40.092Z,80.32
2019-01-13T05:45:09.673Z,80.26
2019-01-13T05:47:37.438Z,80.45
2019-01-13T05:50:06.378Z,80.35
2019-01-13T05:52:34.397Z,80.38
2019-01-13T05:55:03.244Z,80.50
2019-01-13T05:57:30.966Z,81.35
2019-01-13T05:59:58.705Z,81.54
2019-01-13T06:02:26.452Z,80.84
2019-01-13T06:04:54.215Z,80.65
2019-01-13T06:07:21.967Z,80.69
2019-01-13T06:09:49.789Z,80.90
2019-01-13T06:12:17.597Z,80.91
2019-01-13T06:14:45.360Z,80.95
2019-01-13T06:17:13.121Z,80.94
2019-01-13T06:19:41.758Z,81.08
2019-01-13T06:22:09.481Z,81.40
2019-01-13T06:24:37.247Z,81.10
2019-01-13T06:27:04.985Z,80.15
2019-01-13T06:29:32.743Z,80.80
2019-01-13T06:32:00.793Z,80.62
2019-01-13T06:34:28.799Z,80.25
2019-01-13T06:36:56.544Z,80.12
2019-01-13T06:39:24.283Z,80.22
2019-01-13T06:41:52.041Z,80.09
2019-01-13T06:44:19.760Z,79.79
2019-01-13T06:46:47.537Z,79.80
2019-01-13T06:49:15.756Z,80.19
2019-01-13T06:51:43.522Z,80.71
2019-01-13T06:54:11.542Z,80.40
2019-01-13T06:56:39.341Z,80.42
2019-01-13T06:59:07.090Z,80.82
2019-01-13T07:01:34.830Z,81.25
2019-01-13T07:04:02.662Z,81.07
2019-01-13T07:06:30.436Z,81.32
2019-01-13T07:09:30.448Z,81.44
2019-01-13T07:11:58.188Z,81.64
2019-01-13T07:14:25.913Z,81.33
2019-01-13T07:16:53.692Z,81.11
2019-01-13T07:19:21.420Z,80.76
2019-01-13T07:21:49.179Z,80.62
2019-01-13T07:24:33.443Z,80.38
2019-01-13T07:27:01.252Z,80.33
2019-01-13T07:29:29.295Z,80.86
2019-01-13T07:31:57.020Z,80.39
2019-01-13T07:34:25.444Z,80.21
2019-01-13T07:36:57.617Z,80.48
2019-01-13T07:39:25.443Z,80.06
2019-01-13T07:41:55.647Z,80.13
2019-01-13T07:44:23.363Z,79.76
2019-01-13T07:46:51.145Z,80.04
2019-01-13T07:50:03.411Z,79.69
2019-01-13T07:52:35.480Z,79.64
2019-01-13T07:55:05.131Z,79.52
2019-01-13T07:57:36.324Z,79.58
2019-01-13T08:00:07.804Z,79.90
2019-01-13T08:02:39.099Z,79.57
2019-01-13T08:05:07.077Z,79.32
2019-01-13T08:07:37.578Z,79.24
2019-01-13T08:10:09.125Z,79.18
2019-01-13T08:12:36.958Z,79.27
2019-01-13T08:15:09.724Z,79.35
2019-01-13T08:17:37.559Z,79.09
2019-01-13T08:20:23.508Z,79.43
2019-01-13T08:23:11.879Z,79.49
2019-01-13T08:25:39.693Z,79.35
2019-01-13T08:28:13.603Z,78.82
2019-01-13T08:30:41.392Z,78.84
2019-01-13T08:33:13.551Z,78.95
2019-01-13T08:35:42.543Z,78.90
2019-01-13T08:38:12.806Z,79.11
2019-01-13T08:40:40.576Z,78.34
2019-01-13T08:43:14.272Z,78.61
2019-01-13T08:45:42.191Z,78.37
2019-01-13T08:48:10.044Z,78.44
2019-01-13T08:50:41.256Z,78.82
2019-01-13T08:53:17.275Z,79.21
2019-01-13T08:55:52.448Z,79.59
2019-01-13T08:58:20.255Z,80.86
2019-01-13T09:00:48.030Z,81.21
2019-01-13T09:03:28.487Z,81.42
2019-01-13T09:05:56.338Z,81.41
2019-01-13T09:08:31.954Z,81.83
2019-01-13T09:11:12.422Z,82.17
2019-01-13T09:13:58.767Z,82.41
2019-01-13T09:16:26.932Z,82.59
2019-01-13T09:19:01.571Z,82.99
2019-01-13T09:21:38.446Z,83.17
2019-01-13T09:24:06.326Z,83.62
2019-01-13T09:26:36.538Z,84.22
2019-01-13T09:29:16.592Z,84.26
2019-01-13T09:31:44.368Z,84.28
2019-01-13T09:34:12.148Z,84.21
2019-01-13T09:36:50.550Z,84.03
2019-01-13T09:39:18.756Z,83.83
2019-01-13T09:41:46.482Z,83.78
2019-01-13T09:44:14.309Z,83.36
2019-01-13T09:46:42.144Z,83.34
2019-01-13T09:49:09.921Z,82.71
2019-01-13T09:51:42.805Z,82.83
2019-01-13T09:54:10.579Z,83.03
2019-01-13T09:56:38.307Z,83.05
2019-01-13T09:59:15.108Z,83.85
2019-01-13T10:01:41.688Z,84.39
2019-01-13T10:04:16.311Z,83.75
2019-01-13T10:06:44.333Z,83.71
2019-01-13T10:09:15.422Z,83.42
2019-01-13T10:11:43.162Z,83.28
2019-01-13T10:14:12.786Z,83.46
2019-01-13T10:16:40.547Z,82.87
2019-01-13T10:19:13.127Z,82.12
2019-01-13T10:21:41.389Z,81.26
2019-01-13T10:24:09.078Z,81.85
2019-01-13T10:26:36.889Z,81.89
2019-01-13T10:29:07.214Z,81.78
2019-01-13T10:31:38.299Z,82.51
2019-01-13T10:34:06.013Z,83.74
2019-01-13T10:36:42.854Z,83.34
2019-01-13T10:39:10.632Z,83.71
2019-01-13T10:41:38.401Z,83.84
2019-01-13T10:44:15.921Z,83.82
2019-01-13T10:46:46.666Z,84.64
2019-01-13T10:49:14.556Z,84.99
2019-01-13T10:51:48.278Z,85.20
2019-01-13T10:54:16.062Z,85.25
2019-01-13T10:56:43.816Z,84.99
2019-01-13T10:59:11.572Z,84.82
2019-01-13T11:01:39.820Z,84.64
2019-01-13T11:04:11.140Z,84.94
2019-01-13T11:06:42.072Z,85.48
2019-01-13T11:09:14.561Z,85.90
2019-01-13T11:11:42.382Z,85.93
2019-01-13T11:14:19.196Z,86.22
2019-01-13T11:16:46.962Z,86.04
2019-01-13T11:19:15.491Z,85.89
2019-01-13T11:21:43.926Z,86.65
2019-01-13T11:24:14.054Z,86.70
2019-01-13T11:26:44.612Z,86.61
2019-01-13T11:29:12.380Z,87.23
2019-01-13T11:31:40.136Z,87.62
2019-01-13T11:34:14.023Z,88.47
2019-01-13T11:36:45.166Z,88.55
2019-01-13T11:39:12.976Z,88.15
2019-01-13T11:41:49.681Z,87.59
2019-01-13T11:44:17.491Z,88.47
2019-01-13T11:46:56.860Z,87.85
2019-01-13T11:49:27.451Z,87.39
2019-01-13T11:51:57.671Z,87.46
2019-01-13T11:54:33.013Z,86.81
2019-01-13T11:57:11.415Z,85.30
2019-01-13T11:59:48.654Z,85.20
2019-01-13T12:02:32.562Z,84.43
2019-01-13T12:04:59.383Z,83.95
2019-01-13T12:07:33.000Z,82.25
2019-01-13T12:10:07.043Z,83.60
2019-01-13T12:12:35.373Z,82.58
2019-01-13T12:15:19.682Z,82.09
2019-01-13T12:17:56.023Z,82.18
2019-01-13T12:20:44.949Z,83.08
2019-01-13T12:23:16.540Z,81.79
2019-01-13T12:25:54.902Z,82.24
2019-01-13T12:28:39.738Z,81.87
2019-01-13T12:31:13.125Z,81.72
2019-01-13T12:33:52.412Z,81.48
2019-01-13T12:36:33.283Z,81.21
2019-01-13T12:39:08.428Z,81.68
2019-01-13T12:41:45.251Z,82.04
2019-01-13T12:44:14.959Z,82.50
2019-01-13T12:46:47.634Z,81.61
2019-01-13T12:49:15.570Z,81.74
2019-01-13T12:51:43.336Z,81.08
2019-01-13T12:54:11.127Z,80.50
2019-01-13T12:56:38.931Z,80.60
2019-01-13T12:59:06.726Z,81.01
2019-01-13T13:01:36.938Z,80.76
2019-01-13T13:04:04.742Z,80.67
2019-01-13T13:06:32.512Z,80.87
2019-01-13T13:09:00.932Z,80.88
2019-01-13T13:11:29.104Z,81.21
2019-01-13T13:13:56.931Z,81.51
2019-01-13T13:16:24.678Z,80.61
2019-01-13T13:18:52.416Z,80.80
2019-01-13T13:21:20.182Z,81.03
2019-01-13T13:23:47.943Z,81.08
2019-01-13T13:26:15.714Z,81.09
2019-01-13T13:28:43.626Z,80.77
2019-01-13T13:31:11.461Z,80.63
2019-01-13T13:33:39.266Z,80.50
2019-01-13T13:36:09.437Z,80.79
2019-01-13T13:38:37.355Z,80.77
2019-01-13T13:41:05.317Z,80.88
2019-01-13T13:43:32.230Z,81.34
2019-01-13T13:46:01.651Z,81.64
2019-01-13T13:48:52.983Z,81.65
2019-01-13T13:51:21.162Z,82.52
2019-01-13T13:53:48.984Z,83.95
2019-01-13T13:56:17.002Z,84.36
2019-01-13T13:58:44.808Z,84.49
2019-01-13T14:01:12.750Z,85.17
2019-01-13T14:03:45.751Z,85.29
2019-01-13T14:06:10.243Z,85.80
2019-01-13T14:08:38.118Z,85.50
2019-01-13T14:11:05.875Z,85.46
2019-01-13T14:13:33.684Z,85.44
2019-01-13T14:16:01.574Z,85.84
2019-01-13T14:18:29.378Z,85.44
2019-01-13T14:20:57.220Z,85.70
2019-01-13T14:23:25.027Z,85.15
2019-01-13T14:25:52.833Z,84.93
2019-01-13T14:28:20.589Z,84.80
2019-01-13T14:30:48.343Z,85.30
2019-01-13T14:33:16.105Z,85.65
2019-01-13T14:35:43.957Z,86.03
2019-01-13T14:38:11.747Z,86.13
2019-01-13T14:40:39.538Z,86.27
2019-01-13T14:43:07.298Z,86.60
2019-01-13T14:45:35.083Z,86.71
2019-01-13T14:48:03.385Z,86.90
2019-01-13T14:50:32.289Z,87.12
2019-01-13T14:53:00.601Z,87.97
2019-01-13T14:55:28.651Z,88.00
2019-01-13T14:57:56.518Z,88.59
2019-01-13T15:00:29.735Z,89.01
2019-01-13T15:02:57.611Z,89.07
2019-01-13T15:05:25.479Z,89.41
2019-01-13T15:07:53.415Z,89.63
2019-01-13T15:10:21.945Z,89.79
2019-01-13T15:12:49.723Z,89.79
2019-01-13T15:15:17.683Z,90.06
2019-01-13T15:17:45.697Z,89.77
2019-01-13T15:20:16.285Z,89.99
2019-01-13T15:22:44.511Z,90.34
2019-01-13T15:25:54.585Z,90.52
2019-01-13T15:28:22.552Z,90.27
2019-01-13T15:30:50.311Z,90.56
2019-01-13T15:33:18.117Z,90.31
2019-01-13T15:35:45.896Z,90.87
2019-01-13T15:38:21.263Z,90.51
2019-01-13T15:40:49.058Z,90.57
2019-01-13T15:43:16.877Z,90.39
2019-01-13T15:45:44.640Z,90.53
2019-01-13T15:48:12.468Z,90.20
2019-01-13T15:50:40.236Z,90.23
2019-01-13T15:53:08.038Z,90.91
2019-01-13T15:55:35.824Z,91.50
2019-01-13T15:58:04.135Z,91.57
2019-01-13T16:00:34.149Z,91.80
2019-01-13T16:03:01.908Z,91.52
2019-01-13T16:05:29.731Z,91.32
2019-01-13T16:07:57.488Z,91.15
2019-01-13T16:10:25.591Z,91.25
2019-01-13T16:12:54.212Z,90.99
2019-01-13T16:15:22.220Z,90.85
2019-01-13T16:17:50.222Z,90.55
2019-01-13T16:20:21.900Z,90.20
2019-01-13T16:22:49.816Z,90.03
2019-01-13T16:25:17.589Z,90.19
2019-01-13T16:27:45.462Z,90.42
2019-01-13T16:30:17.244Z,90.55
2019-01-13T16:32:45.039Z,90.53
2019-01-13T16:35:12.968Z,90.70
2019-01-13T16:37:40.747Z,91.17
2019-01-13T16:40:12.417Z,91.49
2019-01-13T16:42:40.469Z,91.67
2019-01-13T16:45:09.727Z,92.01
2019-01-13T16:47:37.503Z,91.88
2019-01-13T16:50:12.715Z,91.55
2019-01-13T16:52:40.603Z,91.68
2019-01-13T16:55:11.276Z,92.37
2019-01-13T16:57:39.228Z,92.37
2019-01-13T17:00:13.034Z,92.33
2019-01-13T17:02:41.073Z,92.38
2019-01-13T17:05:10.641Z,91.87
2019-01-13T17:07:40.467Z,92.23
2019-01-13T17:10:12.158Z,92.35
2019-01-13T17:12:39.908Z,92.19
2019-01-13T17:15:10.013Z,92.43
2019-01-13T17:17:37.772Z,91.91
2019-01-13T17:20:10.057Z,91.61
2019-01-13T17:22:37.828Z,90.97
2019-01-13T17:25:06.287Z,90.74
2019-01-13T17:27:34.132Z,90.76
2019-01-13T17:30:02.121Z,90.75
2019-01-13T17:32:29.891Z,90.83
2019-01-13T17:34:57.686Z,90.58
2019-01-13T17:37:25.584Z,90.30
2019-01-13T17:39:53.384Z,90.22
2019-01-13T17:42:21.176Z,89.74
2019-01-13T17:44:48.988Z,89.65
2019-01-13T17:47:16.750Z,89.72
2019-01-13T17:49:44.502Z,90.06
2019-01-13T17:52:12.297Z,90.39
2019-01-13T17:54:40.031Z,90.57
2019-01-13T17:57:07.955Z,90.60
2019-01-13T17:59:35.723Z,90.28
2019-01-13T18:02:03.491Z,90.38
2019-01-13T18:04:31.261Z,90.14
2019-01-13T18:06:59.052Z,89.91
2019-01-13T18:09:26.851Z,89.61
2019-01-13T18:11:54.641Z,90.10
2019-01-13T18:14:28.345Z,90.17
2019-01-13T18:16:56.279Z,90.19
2019-01-13T18:19:24.086Z,90.25
2019-01-13T18:21:51.898Z,89.29
2019-01-13T18:24:19.656Z,88.95
2019-01-13T18:26:53.289Z,88.71
2019-01-13T18:29:39.671Z,88.58
2019-01-13T18:32:12.810Z,87.76
2019-01-13T18:34:50.229Z,88.32
2019-01-13T18:37:26.371Z,88.44
2019-01-13T18:40:26.674Z,88.30
2019-01-13T18:43:33.238Z,88.12
2019-01-13T18:46:00.914Z,87.52
2019-01-13T18:48:31.314Z,87.41
2019-01-13T18:51:15.030Z,87.03
2019-01-13T18:54:20.360Z,86.95
2019-01-13T18:56:48.229Z,87.48
2019-01-13T18:59:16.022Z,87.24
2019-01-13T19:01:43.765Z,86.63
2019-01-13T19:04:11.560Z,87.13
2019-01-13T19:06:39.439Z,86.56
2019-01-13T19:09:10.470Z,86.26
2019-01-13T19:11:43.806Z,87.55
2019-01-13T19:14:25.197Z,88.13
2019-01-13T19:17:05.462Z,86.96
2019-01-13T19:20:18.180Z,84.06
2019-01-13T19:22:49.158Z,82.95
2019-01-13T19:25:29.802Z,80.37
2019-01-13T19:27:57.542Z,80.64
2019-01-13T19:30:25.350Z,79.27
2019-01-13T19:32:53.166Z,79.90
2019-01-13T19:35:21.286Z,80.57
2019-01-13T19:37:49.066Z,81.33
2019-01-13T19:40:17.044Z,81.97
2019-01-13T19:42:45.013Z,81.60
2019-01-13T19:45:15.656Z,81.70
2019-01-13T19:47:43.496Z,81.29
2019-01-13T19:50:14.635Z,82.50
2019-01-13T19:52:42.380Z,81.76
2019-01-13T19:55:12.459Z,82.52
2019-01-13T19:57:40.317Z,83.08
2019-01-13T20:00:14.577Z,82.59
2019-01-13T20:02:42.303Z,82.28
2019-01-13T20:05:11.949Z,82.34
2019-01-13T20:07:44.878Z,82.99
2019-01-13T20:10:13.711Z,82.15
2019-01-13T20:12:41.507Z,81.78
2019-01-13T20:15:11.300Z,81.97
2019-01-13T20:17:47.711Z,81.63
2019-01-13T20:20:15.800Z,82.41
2019-01-13T20:22:43.599Z,82.21
2019-01-13T20:25:11.786Z,82.60
2019-01-13T20:27:40.084Z,81.97
2019-01-13T20:30:14.967Z,81.79
2019-01-13T20:32:42.838Z,81.92
2019-01-13T20:35:10.717Z,82.01
2019-01-13T20:37:38.513Z,81.91
2019-01-13T20:40:09.746Z,81.42
2019-01-13T20:42:37.597Z,82.02
2019-01-13T20:45:11.454Z,81.51
2019-01-13T20:47:39.221Z,81.51
2019-01-13T20:50:09.526Z,81.65
2019-01-13T20:52:37.343Z,81.91
2019-01-13T20:55:06.645Z,78.88
2019-01-13T20:57:35.823Z,76.90
2019-01-13T21:00:06.448Z,77.09
2019-01-13T21:02:34.280Z,75.52
2019-01-13T21:05:02.629Z,74.63
2019-01-13T21:07:30.435Z,74.39
2019-01-13T21:09:58.242Z,74.67
2019-01-13T21:12:27.179Z,74.87
2019-01-13T21:14:54.971Z,75.23
2019-01-13T21:17:22.745Z,77.11
2019-01-13T21:19:50.524Z,79.02
2019-01-13T21:22:18.367Z,79.19
2019-01-13T21:24:46.125Z,79.71
2019-01-13T21:27:13.862Z,81.20
2019-01-13T21:29:41.695Z,82.05
2019-01-13T21:32:09.484Z,81.29
2019-01-13T21:34:37.240Z,81.62
2019-01-13T21:37:05.029Z,80.89
2019-01-13T21:39:32.790Z,80.86
2019-01-13T21:42:00.548Z,80.50
2019-01-13T21:44:28.681Z,80.58
2019-01-13T21:46:56.459Z,80.54
2019-01-13T21:49:24.204Z,80.54
2019-01-13T21:51:52.001Z,80.70
2019-01-13T21:54:19.879Z,81.00
2019-01-13T21:56:47.655Z,81.83
2019-01-13T21:59:15.434Z,82.57
2019-01-13T22:01:43.222Z,82.14
2019-01-13T22:04:10.970Z,81.09
2019-01-13T22:06:38.760Z,80.29
2019-01-13T22:09:11.182Z,79.34
2019-01-13T22:11:38.944Z,79.10
2019-01-13T22:14:06.709Z,78.91
2019-01-13T22:16:34.471Z,77.80
2019-01-13T22:19:02.322Z,77.51
2019-01-13T22:21:30.073Z,77.78
2019-01-13T22:23:57.845Z,77.89
2019-01-13T22:26:25.807Z,78.03
2019-01-13T22:28:53.561Z,77.88
2019-01-13T22:31:22.483Z,77.50
2019-01-13T22:33:50.697Z,76.47
2019-01-13T22:36:18.451Z,76.02
2019-01-13T22:38:46.186Z,76.50
2019-01-13T22:41:14.192Z,76.09
2019-01-13T22:43:41.931Z,75.46
2019-01-13T22:46:09.689Z,75.51
2019-01-13T22:48:37.633Z,73.93
2019-01-13T22:51:05.376Z,74.00
2019-01-13T22:53:33.264Z,73.55
2019-01-13T22:56:01.229Z,72.33
2019-01-13T22:58:28.977Z,72.68
2019-01-13T23:01:26.588Z,72.46
2019-01-13T23:03:57.423Z,72.04
2019-01-13T23:06:25.230Z,71.20
2019-01-13T23:08:52.997Z,71.31
2019-01-13T23:11:20.753Z,71.38
2019-01-13T23:13:48.507Z,71.84
2019-01-13T23:16:16.288Z,71.80
2019-01-13T23:18:44.026Z,71.59
2019-01-13T23:21:11.803Z,72.19
2019-01-13T23:23:39.557Z,72.77
2019-01-13T23:26:07.370Z,72.49
2019-01-13T23:28:35.136Z,72.42
2019-01-13T23:31:03.123Z,72.37
2019-01-13T23:33:30.922Z,72.42
2019-01-13T23:36:02.733Z,72.88
2019-01-13T23:38:28.475Z,73.34
2019-01-13T23:40:56.232Z,73.69
2019-01-13T23:43:23.986Z,73.17
2019-01-13T23:45:51.723Z,72.36
2019-01-13T23:48:19.671Z,72.59
2019-01-13T23:50:47.412Z,72.50
2019-01-13T23:53:15.311Z,72.79
2019-01-13T23:55:43.086Z,73.31
2019-01-13T23:58:11.014Z,73.15
